EWG9KG EDDS-EDDB
Flight info
| Callsign | EWG9KG |
|---|---|
| Flight time | 0h 57m |
| Altitude | 23000 |
| Route | DKB4H DKB N869 AMOSA Z77 LONLI M726 LASGA T202 ATGUP ATGUP1L |
| Aircraft | A320/M-SDE3FGHIRWY/LB1 |
Departure
| Time | 2026-05-01 11:38 |
|---|---|
| Airport | Stuttgart Airport (EDDS) |
Arrival
| Time | 2026-05-01 12:35 |
|---|---|
| Airport | Berlin Brandenburg Airport (EDDB) |
| Time | Latitude | Longitude | Altitude | Speed | Heading |
|---|---|---|---|---|---|
| 2026-05-01 11:11 | 48.68922 | 9.19586 | 1302 ft | 0 kts | 343° |
| 2026-05-01 11:30 | 48.68904 | 9.19593 | 1301 ft | 4 kts | 351° |
| 2026-05-01 11:30 | 48.68877 | 9.19595 | 1301 ft | 4 kts | 14° |
| 2026-05-01 11:31 | 48.68856 | 9.19577 | 1301 ft | 4 kts | 63° |
| 2026-05-01 11:31 | 48.68853 | 9.19568 | 1301 ft | 0 kts | 74° |
| 2026-05-01 11:34 | 48.68854 | 9.19576 | 1301 ft | 2 kts | 74° |
| 2026-05-01 11:35 | 48.68861 | 9.19611 | 1301 ft | 5 kts | 74° |
| 2026-05-01 11:35 | 48.68872 | 9.19674 | 1301 ft | 7 kts | 74° |
| 2026-05-01 11:35 | 48.68889 | 9.19763 | 1301 ft | 10 kts | 74° |
| 2026-05-01 11:35 | 48.68875 | 9.19864 | 1300 ft | 12 kts | 142° |
| 2026-05-01 11:36 | 48.68805 | 9.19910 | 1299 ft | 9 kts | 144° |
| 2026-05-01 11:36 | 48.68741 | 9.19962 | 1299 ft | 11 kts | 163° |
| 2026-05-01 11:36 | 48.68675 | 9.19990 | 1299 ft | 10 kts | 165° |
| 2026-05-01 11:36 | 48.68606 | 9.20022 | 1301 ft | 9 kts | 159° |
| 2026-05-01 11:37 | 48.68591 | 9.20115 | 1299 ft | 13 kts | 74° |
| 2026-05-01 11:37 | 48.68648 | 9.20415 | 1294 ft | 61 kts | 73° |
| 2026-05-01 11:37 | 48.68829 | 9.21368 | 1262 ft | 124 kts | 75° |
| 2026-05-01 11:37 | 48.69103 | 9.22836 | 1409 ft | 152 kts | 75° |
| 2026-05-01 11:38 | 48.69386 | 9.24380 | 2146 ft | 153 kts | 77° |
| 2026-05-01 11:38 | 48.69693 | 9.25962 | 2831 ft | 160 kts | 77° |
| 2026-05-01 11:38 | 48.70032 | 9.27668 | 3327 ft | 180 kts | 75° |
| 2026-05-01 11:38 | 48.70392 | 9.29599 | 3660 ft | 202 kts | 77° |
| 2026-05-01 11:39 | 48.70795 | 9.31794 | 4175 ft | 230 kts | 77° |
| 2026-05-01 11:39 | 48.71249 | 9.34238 | 4784 ft | 251 kts | 77° |
| 2026-05-01 11:39 | 48.71735 | 9.36833 | 5567 ft | 260 kts | 77° |
| 2026-05-01 11:39 | 48.72239 | 9.39494 | 6468 ft | 265 kts | 77° |
| 2026-05-01 11:40 | 48.72755 | 9.42205 | 7338 ft | 270 kts | 76° |
| 2026-05-01 11:40 | 48.73282 | 9.44956 | 8189 ft | 273 kts | 76° |
| 2026-05-01 11:40 | 48.73826 | 9.47728 | 9136 ft | 276 kts | 73° |
| 2026-05-01 11:40 | 48.74678 | 9.50370 | 10042 ft | 283 kts | 59° |
| 2026-05-01 11:41 | 48.75914 | 9.52751 | 10670 ft | 296 kts | 53° |
| 2026-05-01 11:41 | 48.77276 | 9.55243 | 10920 ft | 318 kts | 52° |
| 2026-05-01 11:41 | 48.78718 | 9.57874 | 11500 ft | 328 kts | 52° |
| 2026-05-01 11:41 | 48.80187 | 9.60549 | 12234 ft | 332 kts | 52° |
| 2026-05-01 11:42 | 48.81671 | 9.63260 | 12968 ft | 335 kts | 52° |
| 2026-05-01 11:42 | 48.83165 | 9.66001 | 13710 ft | 339 kts | 52° |
| 2026-05-01 11:42 | 48.84672 | 9.68773 | 14442 ft | 342 kts | 52° |
| 2026-05-01 11:42 | 48.86190 | 9.71572 | 15091 ft | 345 kts | 52° |
| 2026-05-01 11:43 | 48.87717 | 9.74390 | 15750 ft | 347 kts | 52° |
| 2026-05-01 11:43 | 48.89262 | 9.77240 | 16415 ft | 350 kts | 52° |
| 2026-05-01 11:43 | 48.90813 | 9.80105 | 17064 ft | 352 kts | 52° |
| 2026-05-01 11:44 | 48.93932 | 9.85877 | 18367 ft | 358 kts | 52° |
| 2026-05-01 11:44 | 48.95520 | 9.88823 | 18958 ft | 362 kts | 52° |
| 2026-05-01 11:44 | 48.97123 | 9.91791 | 19540 ft | 365 kts | 52° |
| 2026-05-01 11:44 | 48.98741 | 9.94784 | 20154 ft | 367 kts | 52° |
| 2026-05-01 11:45 | 49.00367 | 9.97801 | 20776 ft | 370 kts | 52° |
| 2026-05-01 11:45 | 49.02004 | 10.00847 | 21359 ft | 373 kts | 51° |
| 2026-05-01 11:45 | 49.03651 | 10.03915 | 21923 ft | 376 kts | 51° |
| 2026-05-01 11:45 | 49.05309 | 10.07005 | 22470 ft | 379 kts | 51° |
| 2026-05-01 11:46 | 49.06981 | 10.10127 | 23045 ft | 381 kts | 51° |
| 2026-05-01 11:46 | 49.08663 | 10.13277 | 23327 ft | 383 kts | 51° |
| 2026-05-01 11:46 | 49.10327 | 10.16397 | 23378 ft | 375 kts | 51° |
| 2026-05-01 11:46 | 49.11963 | 10.19469 | 23384 ft | 372 kts | 51° |
| 2026-05-01 11:47 | 49.13593 | 10.22532 | 23386 ft | 371 kts | 51° |
| 2026-05-01 11:47 | 49.15322 | 10.25449 | 23396 ft | 371 kts | 45° |
| 2026-05-01 11:47 | 49.17134 | 10.28254 | 23392 ft | 371 kts | 46° |
| 2026-05-01 11:47 | 49.18945 | 10.31057 | 23395 ft | 370 kts | 46° |
| 2026-05-01 11:48 | 49.20752 | 10.33860 | 23399 ft | 370 kts | 46° |
| 2026-05-01 11:48 | 49.22536 | 10.36627 | 23403 ft | 370 kts | 46° |
| 2026-05-01 11:48 | 49.24344 | 10.39431 | 23401 ft | 370 kts | 46° |
| 2026-05-01 11:48 | 49.26158 | 10.42224 | 23406 ft | 370 kts | 45° |
| 2026-05-01 11:49 | 49.27981 | 10.45006 | 23402 ft | 370 kts | 45° |
| 2026-05-01 11:49 | 49.29809 | 10.47789 | 23404 ft | 370 kts | 45° |
| 2026-05-01 11:49 | 49.31637 | 10.50571 | 23407 ft | 371 kts | 45° |
| 2026-05-01 11:49 | 49.33465 | 10.53359 | 23408 ft | 371 kts | 45° |
| 2026-05-01 11:50 | 49.35286 | 10.56155 | 23409 ft | 371 kts | 46° |
| 2026-05-01 11:50 | 49.37083 | 10.58994 | 23412 ft | 371 kts | 46° |
| 2026-05-01 11:50 | 49.38858 | 10.61871 | 23417 ft | 371 kts | 47° |
| 2026-05-01 11:50 | 49.40623 | 10.64762 | 23417 ft | 371 kts | 47° |
| 2026-05-01 11:51 | 49.42389 | 10.67650 | 23415 ft | 371 kts | 47° |
| 2026-05-01 11:51 | 49.44172 | 10.70512 | 23417 ft | 371 kts | 46° |
| 2026-05-01 11:51 | 49.45971 | 10.73353 | 23416 ft | 371 kts | 46° |
| 2026-05-01 11:51 | 49.47782 | 10.76183 | 23415 ft | 371 kts | 44° |
| 2026-05-01 11:52 | 49.49844 | 10.78552 | 23400 ft | 372 kts | 29° |
| 2026-05-01 11:52 | 49.52136 | 10.80400 | 23389 ft | 372 kts | 28° |
| 2026-05-01 11:52 | 49.54434 | 10.82229 | 23395 ft | 372 kts | 28° |
| 2026-05-01 11:52 | 49.56737 | 10.84050 | 23398 ft | 373 kts | 28° |
| 2026-05-01 11:53 | 49.59050 | 10.85870 | 23398 ft | 373 kts | 28° |
| 2026-05-01 11:53 | 49.61358 | 10.87686 | 23394 ft | 373 kts | 28° |
| 2026-05-01 11:53 | 49.63669 | 10.89510 | 23400 ft | 373 kts | 28° |
| 2026-05-01 11:53 | 49.65979 | 10.91339 | 23399 ft | 373 kts | 28° |
| 2026-05-01 11:54 | 49.68259 | 10.93149 | 23404 ft | 373 kts | 28° |
| 2026-05-01 11:54 | 49.70568 | 10.94988 | 23406 ft | 373 kts | 28° |
| 2026-05-01 11:54 | 49.72874 | 10.96827 | 23406 ft | 373 kts | 28° |
| 2026-05-01 11:54 | 49.75177 | 10.98664 | 23406 ft | 373 kts | 28° |
| 2026-05-01 11:55 | 49.77483 | 11.00504 | 23404 ft | 373 kts | 28° |
| 2026-05-01 11:55 | 49.79788 | 11.02342 | 23403 ft | 373 kts | 28° |
| 2026-05-01 11:55 | 49.82091 | 11.04179 | 23412 ft | 373 kts | 28° |
| 2026-05-01 11:55 | 49.84392 | 11.06019 | 23409 ft | 372 kts | 28° |
| 2026-05-01 11:56 | 49.86697 | 11.07866 | 23408 ft | 372 kts | 28° |
| 2026-05-01 11:56 | 49.88998 | 11.09710 | 23410 ft | 372 kts | 28° |
| 2026-05-01 11:56 | 49.91299 | 11.11553 | 23410 ft | 373 kts | 28° |
| 2026-05-01 11:56 | 49.93599 | 11.13400 | 23410 ft | 372 kts | 28° |
| 2026-05-01 11:57 | 49.95901 | 11.15254 | 23412 ft | 373 kts | 28° |
| 2026-05-01 11:57 | 49.97424 | 11.16481 | 23416 ft | 373 kts | 29° |
| 2026-05-01 11:57 | 50.00500 | 11.18968 | 23416 ft | 373 kts | 29° |
| 2026-05-01 11:57 | 50.02802 | 11.20829 | 23412 ft | 373 kts | 29° |
| 2026-05-01 11:58 | 50.05101 | 11.22688 | 23418 ft | 372 kts | 29° |
| 2026-05-01 11:58 | 50.07399 | 11.24547 | 23423 ft | 372 kts | 29° |
| 2026-05-01 11:58 | 50.11962 | 11.28246 | 23422 ft | 372 kts | 29° |
| 2026-05-01 11:59 | 50.14258 | 11.30114 | 23418 ft | 372 kts | 29° |
| 2026-05-01 11:59 | 50.16553 | 11.31982 | 23420 ft | 373 kts | 29° |
| 2026-05-01 11:59 | 50.18852 | 11.33853 | 23418 ft | 372 kts | 29° |
| 2026-05-01 12:00 | 50.23448 | 11.37599 | 23421 ft | 373 kts | 29° |
| 2026-05-01 12:00 | 50.25746 | 11.39472 | 23423 ft | 373 kts | 29° |
| 2026-05-01 12:00 | 50.30348 | 11.43231 | 23423 ft | 373 kts | 29° |
| 2026-05-01 12:01 | 50.32649 | 11.45113 | 23421 ft | 373 kts | 29° |
| 2026-05-01 12:01 | 50.34172 | 11.46359 | 23430 ft | 373 kts | 29° |
| 2026-05-01 12:01 | 50.36473 | 11.48242 | 23427 ft | 373 kts | 29° |
| 2026-05-01 12:01 | 50.38769 | 11.50127 | 23425 ft | 373 kts | 29° |
| 2026-05-01 12:02 | 50.41068 | 11.52019 | 23429 ft | 373 kts | 29° |
| 2026-05-01 12:02 | 50.43361 | 11.53907 | 23425 ft | 373 kts | 29° |
| 2026-05-01 12:02 | 50.45658 | 11.55801 | 23430 ft | 373 kts | 29° |
| 2026-05-01 12:02 | 50.47951 | 11.57694 | 23426 ft | 373 kts | 29° |
| 2026-05-01 12:03 | 50.50246 | 11.59589 | 23427 ft | 373 kts | 29° |
| 2026-05-01 12:03 | 50.52541 | 11.61483 | 23427 ft | 372 kts | 29° |
| 2026-05-01 12:03 | 50.54832 | 11.63378 | 23429 ft | 372 kts | 29° |
| 2026-05-01 12:03 | 50.57124 | 11.65278 | 23438 ft | 372 kts | 29° |
| 2026-05-01 12:04 | 50.59414 | 11.67176 | 23436 ft | 372 kts | 29° |
| 2026-05-01 12:04 | 50.61703 | 11.69078 | 23427 ft | 372 kts | 30° |
| 2026-05-01 12:04 | 50.63990 | 11.70984 | 23430 ft | 372 kts | 29° |
| 2026-05-01 12:04 | 50.66247 | 11.72871 | 23429 ft | 372 kts | 30° |
| 2026-05-01 12:05 | 50.68534 | 11.74785 | 23423 ft | 372 kts | 30° |
| 2026-05-01 12:05 | 50.73112 | 11.78608 | 23419 ft | 372 kts | 29° |
| 2026-05-01 12:05 | 50.75406 | 11.80521 | 23429 ft | 372 kts | 30° |
| 2026-05-01 12:06 | 50.77520 | 11.82832 | 23421 ft | 369 kts | 45° |
| 2026-05-01 12:06 | 50.79320 | 11.85721 | 23423 ft | 369 kts | 47° |
| 2026-05-01 12:06 | 50.81105 | 11.88643 | 23422 ft | 369 kts | 47° |
| 2026-05-01 12:06 | 50.82883 | 11.91573 | 23431 ft | 369 kts | 47° |
| 2026-05-01 12:07 | 50.84660 | 11.94508 | 23428 ft | 369 kts | 47° |
| 2026-05-01 12:07 | 50.86435 | 11.97444 | 23425 ft | 369 kts | 47° |
| 2026-05-01 12:07 | 50.88210 | 12.00385 | 23431 ft | 369 kts | 47° |
| 2026-05-01 12:07 | 50.89985 | 12.03326 | 23431 ft | 369 kts | 47° |
| 2026-05-01 12:08 | 50.91760 | 12.06269 | 23434 ft | 369 kts | 47° |
| 2026-05-01 12:08 | 50.93533 | 12.09210 | 23433 ft | 369 kts | 47° |
| 2026-05-01 12:08 | 50.95310 | 12.12157 | 23428 ft | 369 kts | 47° |
| 2026-05-01 12:08 | 50.97083 | 12.15100 | 23433 ft | 369 kts | 47° |
| 2026-05-01 12:09 | 50.98851 | 12.18041 | 23440 ft | 369 kts | 47° |
| 2026-05-01 12:09 | 51.00620 | 12.20990 | 23440 ft | 369 kts | 47° |
| 2026-05-01 12:09 | 51.02388 | 12.23937 | 23439 ft | 368 kts | 47° |
| 2026-05-01 12:09 | 51.04154 | 12.26885 | 23432 ft | 368 kts | 47° |
| 2026-05-01 12:10 | 51.05894 | 12.29797 | 23434 ft | 368 kts | 47° |
| 2026-05-01 12:10 | 51.09415 | 12.35697 | 23436 ft | 368 kts | 47° |
| 2026-05-01 12:10 | 51.11175 | 12.38648 | 23433 ft | 367 kts | 47° |
| 2026-05-01 12:11 | 51.14689 | 12.44550 | 23439 ft | 367 kts | 47° |
| 2026-05-01 12:11 | 51.16443 | 12.47501 | 23438 ft | 367 kts | 47° |
| 2026-05-01 12:11 | 51.18197 | 12.50452 | 23431 ft | 367 kts | 47° |
| 2026-05-01 12:12 | 51.19948 | 12.53407 | 23437 ft | 366 kts | 47° |
| 2026-05-01 12:12 | 51.21693 | 12.56361 | 23443 ft | 366 kts | 47° |
| 2026-05-01 12:12 | 51.23439 | 12.59316 | 23439 ft | 366 kts | 47° |
| 2026-05-01 12:12 | 51.25183 | 12.62272 | 23440 ft | 366 kts | 47° |
| 2026-05-01 12:13 | 51.26928 | 12.65232 | 23435 ft | 366 kts | 47° |
| 2026-05-01 12:13 | 51.28669 | 12.68190 | 23446 ft | 365 kts | 47° |
| 2026-05-01 12:13 | 51.30406 | 12.71146 | 23436 ft | 365 kts | 47° |
| 2026-05-01 12:13 | 51.32145 | 12.74105 | 23435 ft | 365 kts | 47° |
| 2026-05-01 12:14 | 51.33884 | 12.77064 | 23435 ft | 365 kts | 47° |
| 2026-05-01 12:14 | 51.35620 | 12.80023 | 23429 ft | 364 kts | 47° |
| 2026-05-01 12:14 | 51.37353 | 12.82979 | 23430 ft | 364 kts | 47° |
| 2026-05-01 12:14 | 51.39086 | 12.85936 | 23433 ft | 364 kts | 47° |
| 2026-05-01 12:15 | 51.40812 | 12.88892 | 23433 ft | 364 kts | 47° |
| 2026-05-01 12:15 | 51.42540 | 12.91859 | 23435 ft | 363 kts | 47° |
| 2026-05-01 12:15 | 51.44264 | 12.94821 | 23433 ft | 363 kts | 47° |
| 2026-05-01 12:15 | 51.45987 | 12.97785 | 23428 ft | 363 kts | 47° |
| 2026-05-01 12:16 | 51.47708 | 13.00749 | 23437 ft | 363 kts | 47° |
| 2026-05-01 12:16 | 51.49423 | 13.03705 | 23297 ft | 359 kts | 47° |
| 2026-05-01 12:16 | 51.51108 | 13.06604 | 23022 ft | 352 kts | 47° |
| 2026-05-01 12:16 | 51.52760 | 13.09442 | 22758 ft | 344 kts | 47° |
| 2026-05-01 12:17 | 51.54379 | 13.12236 | 22495 ft | 339 kts | 48° |
| 2026-05-01 12:17 | 51.55970 | 13.14988 | 22145 ft | 334 kts | 47° |
| 2026-05-01 12:17 | 51.57543 | 13.17717 | 21740 ft | 331 kts | 48° |
| 2026-05-01 12:17 | 51.59100 | 13.20429 | 21337 ft | 329 kts | 48° |
| 2026-05-01 12:18 | 51.60629 | 13.23088 | 20935 ft | 327 kts | 48° |
| 2026-05-01 12:18 | 51.62169 | 13.25765 | 20535 ft | 325 kts | 48° |
| 2026-05-01 12:18 | 51.63698 | 13.28421 | 20136 ft | 323 kts | 48° |
| 2026-05-01 12:18 | 51.65222 | 13.31067 | 19731 ft | 321 kts | 48° |
| 2026-05-01 12:19 | 51.66738 | 13.33697 | 19330 ft | 320 kts | 48° |
| 2026-05-01 12:19 | 51.68247 | 13.36321 | 18930 ft | 319 kts | 48° |
| 2026-05-01 12:19 | 51.69748 | 13.38943 | 18508 ft | 318 kts | 48° |
| 2026-05-01 12:19 | 51.71241 | 13.41555 | 18088 ft | 315 kts | 48° |
| 2026-05-01 12:20 | 51.72718 | 13.44144 | 17696 ft | 312 kts | 48° |
| 2026-05-01 12:20 | 51.74302 | 13.46464 | 17520 ft | 304 kts | 36° |
| 2026-05-01 12:20 | 51.76164 | 13.48166 | 16903 ft | 311 kts | 30° |
| 2026-05-01 12:20 | 51.78084 | 13.49768 | 16538 ft | 310 kts | 30° |
| 2026-05-01 12:21 | 51.80086 | 13.51401 | 16285 ft | 339 kts | 29° |
| 2026-05-01 12:21 | 51.82281 | 13.53192 | 16034 ft | 367 kts | 29° |
| 2026-05-01 12:21 | 51.84604 | 13.55090 | 15782 ft | 378 kts | 29° |
| 2026-05-01 12:21 | 51.86961 | 13.57019 | 15538 ft | 380 kts | 29° |
| 2026-05-01 12:22 | 51.89314 | 13.58950 | 15233 ft | 377 kts | 29° |
| 2026-05-01 12:22 | 51.91642 | 13.60868 | 14639 ft | 374 kts | 30° |
| 2026-05-01 12:22 | 51.93920 | 13.62752 | 14328 ft | 362 kts | 30° |
| 2026-05-01 12:22 | 51.96136 | 13.64585 | 13953 ft | 353 kts | 30° |
| 2026-05-01 12:23 | 51.98296 | 13.66377 | 13458 ft | 346 kts | 30° |
| 2026-05-01 12:23 | 52.00432 | 13.68158 | 12944 ft | 343 kts | 30° |
| 2026-05-01 12:23 | 52.02592 | 13.69964 | 12594 ft | 358 kts | 30° |
| 2026-05-01 12:23 | 52.04833 | 13.71842 | 12240 ft | 364 kts | 29° |
| 2026-05-01 12:24 | 52.07088 | 13.73732 | 11892 ft | 365 kts | 29° |
| 2026-05-01 12:24 | 52.09307 | 13.75591 | 11546 ft | 363 kts | 29° |
| 2026-05-01 12:24 | 52.11546 | 13.77464 | 11208 ft | 358 kts | 29° |
| 2026-05-01 12:24 | 52.13724 | 13.79281 | 10894 ft | 346 kts | 29° |
| 2026-05-01 12:25 | 52.15828 | 13.81039 | 10634 ft | 335 kts | 29° |
| 2026-05-01 12:25 | 52.19794 | 13.84365 | 10084 ft | 302 kts | 29° |
| 2026-05-01 12:25 | 52.21600 | 13.85883 | 9796 ft | 285 kts | 29° |
| 2026-05-01 12:26 | 52.23335 | 13.87348 | 9514 ft | 280 kts | 30° |
| 2026-05-01 12:26 | 52.26755 | 13.90245 | 9152 ft | 276 kts | 29° |
| 2026-05-01 12:26 | 52.28456 | 13.91684 | 8854 ft | 275 kts | 29° |
| 2026-05-01 12:27 | 52.30147 | 13.93118 | 8547 ft | 273 kts | 30° |
| 2026-05-01 12:27 | 52.33506 | 13.95970 | 7907 ft | 272 kts | 29° |
| 2026-05-01 12:28 | 52.36952 | 13.98538 | 7197 ft | 273 kts | 14° |
| 2026-05-01 12:28 | 52.38850 | 13.98752 | 6713 ft | 274 kts | 355° |
| 2026-05-01 12:28 | 52.42372 | 13.96707 | 5691 ft | 265 kts | 337° |
| 2026-05-01 12:29 | 52.44038 | 13.95470 | 5249 ft | 259 kts | 337° |
| 2026-05-01 12:29 | 52.45581 | 13.94197 | 5133 ft | 239 kts | 323° |
| 2026-05-01 12:29 | 52.46378 | 13.89454 | 4826 ft | 229 kts | 253° |
| 2026-05-01 12:30 | 52.45256 | 13.84604 | 4251 ft | 227 kts | 249° |
| 2026-05-01 12:30 | 52.44697 | 13.82234 | 3947 ft | 223 kts | 250° |
| 2026-05-01 12:30 | 52.44152 | 13.79901 | 3663 ft | 215 kts | 250° |
| 2026-05-01 12:31 | 52.43628 | 13.77659 | 3387 ft | 206 kts | 250° |
| 2026-05-01 12:31 | 52.43120 | 13.75485 | 3160 ft | 203 kts | 251° |
| 2026-05-01 12:31 | 52.42604 | 13.73280 | 2814 ft | 209 kts | 250° |
| 2026-05-01 12:31 | 52.42102 | 13.71136 | 2559 ft | 195 kts | 250° |
| 2026-05-01 12:32 | 52.41629 | 13.69121 | 2312 ft | 184 kts | 250° |
| 2026-05-01 12:32 | 52.40791 | 13.65554 | 1865 ft | 156 kts | 251° |
| 2026-05-01 12:32 | 52.40417 | 13.63960 | 1601 ft | 145 kts | 250° |
| 2026-05-01 12:33 | 52.40059 | 13.62445 | 1420 ft | 141 kts | 250° |
| 2026-05-01 12:33 | 52.39706 | 13.60952 | 1248 ft | 140 kts | 251° |
| 2026-05-01 12:33 | 52.39361 | 13.59463 | 1079 ft | 140 kts | 251° |
| 2026-05-01 12:33 | 52.39010 | 13.57982 | 895 ft | 139 kts | 250° |
| 2026-05-01 12:34 | 52.38662 | 13.56507 | 711 ft | 139 kts | 251° |
| 2026-05-01 12:34 | 52.38323 | 13.55030 | 529 ft | 138 kts | 250° |
| 2026-05-01 12:34 | 52.37969 | 13.53575 | 320 ft | 137 kts | 250° |
| 2026-05-01 12:34 | 52.37626 | 13.52124 | 166 ft | 134 kts | 250° |
| 2026-05-01 12:35 | 52.37344 | 13.50932 | 159 ft | 89 kts | 248° |
| 2026-05-01 12:35 | 52.37181 | 13.50239 | 158 ft | 46 kts | 248° |
| 2026-05-01 12:35 | 52.37086 | 13.49853 | 159 ft | 29 kts | 244° |
| 2026-05-01 12:35 | 52.36960 | 13.49596 | 157 ft | 23 kts | 220° |
| 2026-05-01 12:36 | 52.36879 | 13.49488 | 153 ft | 16 kts | 219° |
| 2026-05-01 12:36 | 52.36792 | 13.49443 | 149 ft | 13 kts | 161° |
| 2026-05-01 12:36 | 52.36703 | 13.49511 | 147 ft | 10 kts | 136° |
| 2026-05-01 12:36 | 52.36703 | 13.49627 | 148 ft | 12 kts | 69° |
| 2026-05-01 12:37 | 52.36737 | 13.49767 | 148 ft | 15 kts | 69° |
| 2026-05-01 12:37 | 52.36773 | 13.49919 | 147 ft | 13 kts | 69° |
| 2026-05-01 12:37 | 52.36767 | 13.50032 | 149 ft | 9 kts | 137° |
| 2026-05-01 12:37 | 52.36703 | 13.50079 | 149 ft | 11 kts | 159° |
| 2026-05-01 12:38 | 52.36622 | 13.50131 | 149 ft | 14 kts | 158° |
| 2026-05-01 12:38 | 52.36522 | 13.50194 | 149 ft | 16 kts | 159° |
| 2026-05-01 12:38 | 52.36421 | 13.50257 | 149 ft | 16 kts | 159° |
| 2026-05-01 12:38 | 52.36314 | 13.50325 | 149 ft | 17 kts | 159° |
| 2026-05-01 12:39 | 52.36209 | 13.50391 | 149 ft | 16 kts | 159° |
| 2026-05-01 12:39 | 52.36104 | 13.50458 | 149 ft | 16 kts | 159° |
| 2026-05-01 12:39 | 52.36005 | 13.50520 | 149 ft | 14 kts | 159° |
| 2026-05-01 12:39 | 52.35922 | 13.50572 | 149 ft | 11 kts | 159° |
| 2026-05-01 12:40 | 52.35881 | 13.50652 | 150 ft | 9 kts | 93° |
| 2026-05-01 12:40 | 52.35899 | 13.50748 | 153 ft | 9 kts | 69° |
| 2026-05-01 12:40 | 52.35922 | 13.50846 | 154 ft | 10 kts | 69° |
| 2026-05-01 12:40 | 52.35948 | 13.50956 | 156 ft | 10 kts | 69° |
| 2026-05-01 12:41 | 52.35978 | 13.51081 | 155 ft | 14 kts | 69° |
| 2026-05-01 12:41 | 52.36002 | 13.51178 | 155 ft | 9 kts | 69° |
| 2026-05-01 12:41 | 52.36023 | 13.51220 | 156 ft | 3 kts | 4° |
| 2026-05-01 12:41 | 52.36053 | 13.51204 | 155 ft | 6 kts | 339° |
| 2026-05-01 12:42 | 52.36080 | 13.51186 | 155 ft | 4 kts | 339° |
| 2026-05-01 12:42 | 52.36095 | 13.51177 | 155 ft | 1 kts | 339° |